Ashley, Michigan
Current Conditions -  °F | °C
As of 11:55 PM on Thursday 30 Oct 2014 (Local Time) from KAMN Reporting Station
Overcast Overcast  
Wind Chill:   Ceiling: 4000
Heat Index:   Visibility: 7mi
Dew Point:   Wind: 5mph
Humidity: 80%   Direction: 220°SW
Pressure: 29.98"   Gusts: NA
Location:  43.19°N, 84.47°W
Report Text: KAMN 310355Z AUTO 22004KT 7SM BKN040 OVC100 06/03 A2998 RMK AO2 T00630030
Loading
Personal Weather Stations






























Interactive Weather Map
Tropical Storm Tracking
New forecast layout! Learn more

10-Day Weather Forecast

Advertisements
Track Severe Weather on mobile